Terminal Aerodrome Forecast
Issued by NWS

Home | Current Version | Previous Version | Text Only | Print | Product List | Glossary On
Versions: 1 2 3 4 5 6 7 8 9 10 11 12 13 14
000
FTUS45 KTFX 271753
TAFLWT
TAF
KLWT 271753Z 2718/2818 28008KT P6SM SCT025 OVC070
      TEMPO 2718/2722 TSRA BKN025CB
     FM272200 32008KT P6SM VCTS SCT040CB BKN060
      TEMPO 2722/2802 -TSRA BKN040CB
     FM280400 25006KT P6SM BKN070
     FM281500 32006KT P6SM -SHRA BKN050=

USA.gov is the U.S. government's official web portal to all federal, state and local government web resources and services.